Time;durP1;ratioP1;P1;durP2;ratioP2;P2;SDS_P1;SDS_P2;PMS_P1;PMS_P2;Temp;Humidity;BMP_temperature;BMP_pressure;BME280_temperature;BME280_humidity;BME280_pressure;Samples;Min_cycle;Max_cycle;Signal;HPM_P1;HPM_P2
2022/11/30 00:00:25;;;;;;;52.75;23.17;;;;;;;6.61;100.00;102167.75;4886660;29;20044;-74
2022/11/30 00:02:54;;;;;;;52.35;23.95;;;;;;;6.60;100.00;102171.31;4883863;29;20043;-75
2022/11/30 00:05:21;;;;;;;59.05;24.15;;;;;;;6.55;100.00;102159.09;4896006;29;20036;-74
2022/11/30 00:07:47;;;;;;;55.28;23.02;;;;;;;6.53;100.00;102160.94;4886850;29;20076;-76
2022/11/30 00:10:13;;;;;;;52.50;23.55;;;;;;;6.50;100.00;102161.88;4886554;29;20063;-75
2022/11/30 00:12:41;;;;;;;56.30;24.13;;;;;;;6.53;100.00;102159.16;4885047;29;20720;-75
2022/11/30 00:15:11;;;;;;;54.65;24.23;;;;;;;6.52;100.00;102164.47;4884776;29;20090;-75
2022/11/30 00:17:36;;;;;;;55.85;23.45;;;;;;;6.51;100.00;102162.72;4886512;29;20044;-75
2022/11/30 00:20:02;;;;;;;60.05;24.40;;;;;;;6.48;100.00;102161.91;4886626;29;20044;-76
2022/11/30 00:22:27;;;;;;;55.08;24.50;;;;;;;6.47;100.00;102164.56;4886604;29;20044;-75
2022/11/30 00:24:53;;;;;;;54.65;25.05;;;;;;;6.45;100.00;102159.31;4889030;29;20426;-75
2022/11/30 00:27:18;;;;;;;54.15;23.58;;;;;;;6.44;100.00;102160.25;4875933;29;20739;-75
2022/11/30 00:29:44;;;;;;;57.83;26.90;;;;;;;6.44;100.00;102154.94;4886073;29;20131;-74
2022/11/30 00:32:09;;;;;;;52.38;25.75;;;;;;;6.42;100.00;102161.19;4886176;29;20974;-75
2022/11/30 00:34:35;;;;;;;55.55;24.95;;;;;;;6.36;100.00;102163.97;4885428;29;20485;-76
2022/11/30 00:37:00;;;;;;;56.42;25.33;;;;;;;6.34;100.00;102161.38;4884003;29;20119;-74
2022/11/30 00:39:25;;;;;;;58.80;25.48;;;;;;;6.36;100.00;102164.84;4885907;29;20052;-75
2022/11/30 00:41:51;;;;;;;61.63;27.17;;;;;;;6.37;100.00;102163.94;4886078;29;20040;-74
2022/11/30 00:44:16;;;;;;;60.42;25.10;;;;;;;6.43;100.00;102155.88;4885294;29;20044;-75
2022/11/30 00:46:42;;;;;;;62.10;25.55;;;;;;;6.41;100.00;102157.66;4885605;29;20036;-74
2022/11/30 00:49:07;;;;;;;61.78;27.15;;;;;;;6.44;100.00;102165.53;4884436;29;20405;-73
2022/11/30 00:51:33;;;;;;;57.17;26.95;;;;;;;6.47;100.00;102162.78;4885769;29;20049;-75
2022/11/30 00:53:59;;;;;;;64.70;25.85;;;;;;;6.48;100.00;102161.03;4885792;29;20059;-74
2022/11/30 00:56:24;;;;;;;52.28;24.83;;;;;;;6.31;100.00;102158.78;4885461;29;20045;-75
2022/11/30 00:58:50;;;;;;;61.78;26.50;;;;;;;6.37;100.00;102166.59;4885473;29;20041;-75
2022/11/30 01:01:15;;;;;;;55.75;25.25;;;;;;;6.42;100.00;102167.34;4887704;29;20045;-74
2022/11/30 01:03:41;;;;;;;59.08;27.50;;;;;;;6.35;100.00;102171.06;4888225;29;20064;-74
2022/11/30 01:06:08;;;;;;;57.72;26.15;;;;;;;6.37;100.00;102176.31;4890175;29;20044;-73
2022/11/30 01:08:34;;;;;;;56.05;25.15;;;;;;;6.33;100.00;102172.88;4890135;29;20063;-74
2022/11/30 01:11:16;;;;;;;63.78;27.33;;;;;;;6.31;100.00;102174.69;4890997;29;20044;-75
2022/11/30 01:13:41;;;;;;;55.22;25.08;;;;;;;6.29;100.00;102173.88;4890185;29;20474;-73
2022/11/30 01:16:09;;;;;;;66.38;27.20;;;;;;;6.28;100.00;102176.56;4890483;29;20029;-75
2022/11/30 01:18:36;;;;;;;67.05;26.20;;;;;;;6.19;100.00;102173.22;4889997;29;20056;-75
2022/11/30 01:21:07;;;;;;;56.97;25.25;;;;;;;6.18;100.00;102167.97;4890664;29;20067;-74
2022/11/30 01:23:35;;;;;;;56.97;26.10;;;;;;;6.17;100.00;102168.84;4891881;29;20090;-74
2022/11/30 01:26:01;;;;;;;59.83;27.38;;;;;;;6.23;100.00;102179.31;4891331;29;20076;-76
2022/11/30 01:28:26;;;;;;;57.95;24.17;;;;;;;6.23;100.00;102174.03;4891003;29;20051;-74
2022/11/30 01:30:56;;;;;;;65.38;28.45;;;;;;;6.26;100.00;102179.22;4889448;29;20040;-73
2022/11/30 01:33:22;;;;;;;61.65;26.92;;;;;;;6.28;100.00;102176.56;4890811;29;20089;-76
2022/11/30 01:35:47;;;;;;;65.22;27.23;;;;;;;6.35;100.00;102183.44;4890378;29;20055;-74
2022/11/30 01:38:13;;;;;;;61.30;27.13;;;;;;;6.35;100.00;102189.59;4877419;29;20078;-75
2022/11/30 01:40:38;;;;;;;65.57;27.65;;;;;;;6.40;100.00;102179.78;4889897;29;20039;-75
2022/11/30 01:43:10;;;;;;;57.08;25.92;;;;;;;6.28;100.00;102185.38;4871954;29;20047;-73
2022/11/30 01:45:35;;;;;;;69.35;27.58;;;;;;;6.39;100.00;102188.63;4889497;29;20059;-76
2022/11/30 01:48:04;;;;;;;61.38;26.33;;;;;;;6.43;100.00;102178.84;4888712;29;20049;-75
2022/11/30 01:50:33;;;;;;;61.10;26.58;;;;;;;6.41;100.00;102188.59;4888096;29;20048;-74
2022/11/30 01:53:01;;;;;;;58.10;25.70;;;;;;;6.44;100.00;102188.53;4887674;29;20604;-73
2022/11/30 01:55:34;;;;;;;57.75;27.00;;;;;;;6.40;100.00;102186.84;4886865;29;20052;-75
2022/11/30 01:58:04;;;;;;;60.38;25.75;;;;;;;6.31;100.00;102190.59;4888936;29;20044;-75
2022/11/30 02:00:30;;;;;;;60.30;25.58;;;;;;;6.18;100.00;102186.50;4889217;29;20043;-75
2022/11/30 02:03:21;;;;;;;61.42;25.33;;;;;;;6.30;100.00;102180.91;4889081;29;20814;-75
2022/11/30 02:05:48;;;;;;;51.92;24.00;;;;;;;6.27;100.00;102183.59;4879168;29;20159;-76
2022/11/30 02:08:13;;;;;;;56.33;24.10;;;;;;;6.26;100.00;102186.31;4888816;29;20036;-76
2022/11/30 02:10:41;;;;;;;60.97;26.60;;;;;;;6.27;100.00;102180.97;4888675;29;20893;-76
2022/11/30 02:13:37;;;;;;;60.88;25.77;;;;;;;6.28;100.00;102181.84;4888395;29;20148;-74
2022/11/30 02:16:18;;;;;;;61.00;26.17;;;;;;;6.23;100.00;102182.84;4888805;29;20128;-75
2022/11/30 02:19:35;;;;;;;56.50;26.48;;;;;;;6.28;100.00;102179.22;4887137;29;20582;-75
2022/11/30 02:22:06;;;;;;;64.78;27.20;;;;;;;6.27;100.00;102186.25;4829521;29;20058;-75
2022/11/30 02:24:44;;;;;;;63.72;26.92;;;;;;;6.21;100.00;102194.34;4830418;29;20054;-76
2022/11/30 02:27:37;;;;;;;64.20;26.25;;;;;;;6.19;100.00;102189.09;4830766;29;20054;-76
2022/11/30 02:30:13;;;;;;;71.60;28.85;;;;;;;6.17;100.00;102190.91;4830747;29;20053;-76
2022/11/30 02:33:02;;;;;;;65.68;29.58;;;;;;;6.12;100.00;102187.50;4830044;29;20050;-76
2022/11/30 02:35:32;;;;;;;63.00;27.67;;;;;;;5.99;100.00;102193.13;4822984;29;20053;-74
2022/11/30 02:37:59;;;;;;;60.53;25.98;;;;;;;5.93;100.00;102188.84;4829698;29;20084;-75
2022/11/30 02:40:25;;;;;;;68.78;27.25;;;;;;;5.89;100.00;102190.63;4829832;29;20053;-74
2022/11/30 02:42:52;;;;;;;64.65;26.77;;;;;;;5.78;100.00;102187.38;4830027;29;20042;-76
2022/11/30 02:45:30;;;;;;;55.97;23.10;;;;;;;5.80;100.00;102189.97;4814973;29;20082;-76
2022/11/30 02:48:07;;;;;;;57.72;23.48;;;;;;;5.79;100.00;102198.81;4829815;29;20046;-76
2022/11/30 02:50:39;;;;;;;57.13;23.42;;;;;;;5.76;100.00;102199.75;4813648;29;20046;-76
2022/11/30 02:53:07;;;;;;;48.90;21.90;;;;;;;5.71;100.00;102191.03;4829246;29;20049;-74
2022/11/30 02:55:33;;;;;;;59.08;26.05;;;;;;;5.72;100.00;102204.25;4829184;29;20812;-75
2022/11/30 02:57:58;;;;;;;62.17;25.67;;;;;;;5.73;100.00;102202.47;4843965;29;20066;-75
2022/11/30 03:00:24;;;;;;;60.05;27.00;;;;;;;5.71;100.00;102202.47;4887745;29;20365;-76
2022/11/30 03:02:49;;;;;;;61.38;26.80;;;;;;;5.76;100.00;102205.03;4886301;29;20044;-75
2022/11/30 03:05:15;;;;;;;67.25;27.98;;;;;;;5.77;100.00;102200.63;4886490;29;20056;-75
2022/11/30 03:07:40;;;;;;;61.90;27.00;;;;;;;5.70;100.00;102202.53;4886685;29;20028;-75
2022/11/30 03:10:06;;;;;;;63.53;25.98;;;;;;;5.72;100.00;102198.06;4886175;29;20052;-75
2022/11/30 03:12:32;;;;;;;67.85;28.52;;;;;;;5.59;100.00;102200.13;4888424;29;20048;-75
2022/11/30 03:14:57;;;;;;;59.47;25.05;;;;;;;5.59;100.00;102204.53;4887666;29;20044;-73
2022/11/30 03:17:23;;;;;;;60.30;25.35;;;;;;;5.43;100.00;102207.50;4887552;29;20041;-75
2022/11/30 03:19:48;;;;;;;65.60;27.23;;;;;;;5.34;100.00;102206.81;4886216;29;20040;-73
2022/11/30 03:22:14;;;;;;;56.05;24.13;;;;;;;5.27;100.00;102207.81;4887381;29;20045;-75
2022/11/30 03:24:39;;;;;;;59.28;23.10;;;;;;;5.00;100.00;102218.00;4887503;29;20055;-75
2022/11/30 03:27:04;;;;;;;55.05;24.30;;;;;;;5.04;100.00;102217.06;4887585;29;20047;-76
2022/11/30 03:29:30;;;;;;;75.82;24.10;;;;;;;4.93;100.00;102214.63;4885072;29;20064;-76
2022/11/30 03:31:55;;;;;;;59.17;24.02;;;;;;;4.97;100.00;102227.75;4883576;29;20048;-74
2022/11/30 03:34:21;;;;;;;178.35;30.27;;;;;;;4.91;100.00;102229.59;4887165;29;20036;-75
2022/11/30 03:36:47;;;;;;;88.95;24.60;;;;;;;4.82;100.00;102235.06;4887147;29;20063;-74
2022/11/30 03:39:12;;;;;;;77.35;22.65;;;;;;;4.49;100.00;102235.63;4888747;29;20808;-74
2022/11/30 03:41:38;;;;;;;60.53;17.80;;;;;;;4.44;100.00;102234.81;4886016;29;20517;-75
2022/11/30 03:44:03;;;;;;;60.47;18.13;;;;;;;4.49;100.00;102231.22;4887878;29;20067;-75
2022/11/30 03:46:29;;;;;;;131.10;22.27;;;;;;;4.38;100.00;102234.03;4887406;29;20048;-76
2022/11/30 03:48:54;;;;;;;62.28;21.02;;;;;;;4.38;100.00;102231.38;4887071;29;20402;-74
2022/11/30 03:51:20;;;;;;;39.70;16.05;;;;;;;4.46;100.00;102227.72;4887064;29;20489;-75
2022/11/30 03:53:45;;;;;;;57.88;23.45;;;;;;;4.48;100.00;102228.59;4886801;29;20043;-75
2022/11/30 03:56:11;;;;;;;56.92;21.50;;;;;;;4.57;100.00;102229.31;4886604;29;20619;-76
2022/11/30 03:58:37;;;;;;;70.05;26.80;;;;;;;4.64;100.00;102230.09;4887020;29;20096;-76
2022/11/30 04:01:05;;;;;;;73.68;28.40;;;;;;;4.74;100.00;102226.41;4887772;29;20056;-75
2022/11/30 04:03:31;;;;;;;71.40;27.90;;;;;;;4.72;100.00;102224.66;4887621;29;20126;-75
2022/11/30 04:05:57;;;;;;;70.82;27.83;;;;;;;4.73;100.00;102226.44;4887690;29;20040;-76
2022/11/30 04:08:23;;;;;;;83.18;31.23;;;;;;;4.72;100.00;102227.31;4873978;29;20051;-75
2022/11/30 04:10:53;;;;;;;80.32;29.17;;;;;;;4.73;100.00;102226.44;4885387;29;20048;-75
2022/11/30 04:13:20;;;;;;;84.25;30.38;;;;;;;4.73;100.00;102224.66;4885381;29;20115;-75
2022/11/30 04:15:47;;;;;;;76.10;27.58;;;;;;;4.69;100.00;102228.25;4886771;29;20032;-75
2022/11/30 04:18:14;;;;;;;77.93;28.55;;;;;;;4.50;100.00;102229.44;4886772;29;20056;-74
2022/11/30 04:20:40;;;;;;;76.20;28.40;;;;;;;4.51;100.00;102228.53;4886623;29;20612;-76
2022/11/30 04:23:06;;;;;;;75.35;28.17;;;;;;;4.34;100.00;102229.69;4886628;29;20554;-74
2022/11/30 04:25:32;;;;;;;74.05;26.85;;;;;;;4.43;100.00;102225.16;4885312;29;20068;-75
2022/11/30 04:27:57;;;;;;;73.32;28.92;;;;;;;4.37;100.00;102231.41;4885649;29;20037;-75
2022/11/30 04:30:23;;;;;;;72.60;27.65;;;;;;;4.32;100.00;102225.31;4886961;29;20047;-75
2022/11/30 04:32:48;;;;;;;73.13;27.52;;;;;;;4.32;100.00;102226.19;4886475;29;20028;-74
2022/11/30 04:35:14;;;;;;;65.95;26.33;;;;;;;4.27;100.00;102228.03;4888871;29;20095;-74
2022/11/30 04:37:39;;;;;;;67.40;26.88;;;;;;;4.20;100.00;102222.84;4890579;29;20110;-75
2022/11/30 04:40:06;;;;;;;67.40;23.15;;;;;;;4.16;100.00;102220.25;4888932;29;20032;-74
2022/11/30 04:42:31;;;;;;;79.88;27.92;;;;;;;4.13;100.00;102220.31;4890330;29;20569;-75
2022/11/30 04:44:57;;;;;;;63.67;23.65;;;;;;;3.94;100.00;102212.66;4890257;29;20088;-75
2022/11/30 04:47:22;;;;;;;47.45;18.15;;;;;;;3.95;100.00;102220.56;4890290;29;20040;-75
2022/11/30 04:49:48;;;;;;;33.05;13.02;;;;;;;3.87;100.00;102214.53;4890873;29;20040;-74
2022/11/30 04:52:14;;;;;;;47.55;18.92;;;;;;;3.70;100.00;102212.09;4890378;29;20052;-76
2022/11/30 04:54:39;;;;;;;55.47;20.60;;;;;;;3.75;100.00;102212.03;4891241;29;20052;-75
2022/11/30 04:57:05;;;;;;;48.47;15.38;;;;;;;3.61;100.00;102207.84;4889461;29;20041;-75
2022/11/30 04:59:31;;;;;;;52.20;19.15;;;;;;;3.60;100.00;102205.19;4891121;29;20475;-74
2022/11/30 05:01:56;;;;;;;64.05;24.50;;;;;;;3.68;100.00;102205.09;4891708;29;20052;-75
2022/11/30 05:04:22;;;;;;;42.75;17.60;;;;;;;3.55;100.00;102202.59;4891656;29;20041;-76
2022/11/30 05:06:47;;;;;;;36.50;16.85;;;;;;;3.53;100.00;102196.50;4891741;29;20648;-74
2022/11/30 05:09:13;;;;;;;51.15;21.70;;;;;;;3.55;100.00;102204.38;4891209;29;20057;-75
2022/11/30 05:11:38;;;;;;;60.97;24.58;;;;;;;3.56;100.00;102206.13;4890463;29;20049;-76
2022/11/30 05:14:04;;;;;;;59.22;23.42;;;;;;;3.59;100.00;102206.09;4891551;29;20040;-75
2022/11/30 05:16:29;;;;;;;71.78;27.05;;;;;;;3.56;100.00;102212.25;4891534;29;20664;-74
2022/11/30 05:18:55;;;;;;;77.20;25.88;;;;;;;3.59;100.00;102200.81;4892358;29;20041;-75
2022/11/30 05:21:20;;;;;;;72.75;27.75;;;;;;;3.51;100.00;102203.53;4892351;29;20045;-74
2022/11/30 05:23:47;;;;;;;74.72;25.98;;;;;;;3.61;100.00;102206.94;4891683;29;20040;-75
2022/11/30 05:26:13;;;;;;;74.40;25.27;;;;;;;3.48;100.00;102213.25;4891800;29;20053;-76
2022/11/30 05:28:39;;;;;;;54.35;20.08;;;;;;;3.42;100.00;102215.97;4891064;29;20980;-75
2022/11/30 05:31:05;;;;;;;74.10;25.95;;;;;;;3.54;100.00;102221.97;4889689;29;20052;-74
2022/11/30 05:33:31;;;;;;;67.03;24.85;;;;;;;3.50;100.00;102224.66;4890337;29;20040;-75
2022/11/30 05:35:57;;;;;;;73.85;24.45;;;;;;;3.52;100.00;102229.03;4888802;29;20048;-75
2022/11/30 05:38:22;;;;;;;75.03;27.48;;;;;;;3.48;100.00;102232.59;4893600;29;20045;-74
2022/11/30 05:40:48;;;;;;;72.60;23.85;;;;;;;3.36;100.00;102228.34;4893023;29;20047;-75
2022/11/30 05:43:13;;;;;;;62.33;23.63;;;;;;;3.43;100.00;102237.03;4890874;29;20051;-75
2022/11/30 05:45:39;;;;;;;61.13;21.95;;;;;;;3.29;100.00;102231.91;4889061;29;20032;-76
2022/11/30 05:48:04;;;;;;;51.22;20.02;;;;;;;3.34;100.00;102243.28;4885127;29;20097;-73
2022/11/30 05:50:30;;;;;;;56.67;20.17;;;;;;;3.16;100.00;102251.38;4893750;29;20133;-76
2022/11/30 05:52:56;;;;;;;75.10;19.98;;;;;;;3.13;100.00;102251.44;4890159;29;20726;-75
2022/11/30 05:55:26;;;;;;;175.05;25.77;;;;;;;2.97;100.00;102249.84;4889926;29;20055;-75
2022/11/30 05:57:53;;;;;;;59.13;21.75;;;;;;;3.09;100.00;102253.22;4889779;29;20632;-76
2022/11/30 06:00:19;;;;;;;40.08;16.50;;;;;;;3.17;100.00;102262.81;4889244;29;20033;-76
2022/11/30 06:02:45;;;;;;;80.03;27.65;;;;;;;3.17;100.00;102257.53;4889721;29;20047;-75
2022/11/30 06:05:12;;;;;;;142.55;25.73;;;;;;;2.72;100.00;102259.69;4889755;29;20044;-75
2022/11/30 06:07:38;;;;;;;55.08;19.77;;;;;;;2.80;100.00;102264.00;4890072;29;20041;-74
2022/11/30 06:10:04;;;;;;;44.25;20.08;;;;;;;2.57;100.00;102261.56;4889837;29;20052;-75
2022/11/30 06:12:29;;;;;;;37.45;14.05;;;;;;;2.67;100.00;102267.63;4889321;29;20045;-75
2022/11/30 06:14:55;;;;;;;47.33;18.42;;;;;;;2.55;100.00;102267.72;4887756;29;20032;-74
2022/11/30 06:17:20;;;;;;;96.88;19.05;;;;;;;2.44;100.00;102272.19;4887732;29;20044;-74
2022/11/30 06:19:46;;;;;;;39.83;13.52;;;;;;;2.25;100.00;102272.28;4886142;29;20024;-76
2022/11/30 06:22:11;;;;;;;89.65;16.08;;;;;;;1.97;100.00;102271.59;4881079;29;20052;-74
2022/11/30 06:24:36;;;;;;;202.75;23.08;;;;;;;1.87;100.00;102271.63;4888069;29;20126;-76
2022/11/30 06:27:02;;;;;;;215.77;21.17;;;;;;;1.83;100.00;102278.66;4888507;29;20098;-74
2022/11/30 06:29:28;;;;;;;242.35;22.20;;;;;;;1.89;100.00;102286.50;4885172;29;20048;-74
2022/11/30 06:31:53;;;;;;;229.75;21.00;;;;;;;1.81;100.00;102286.56;4890754;29;20036;-75
2022/11/30 06:34:18;;;;;;;124.55;17.30;;;;;;;1.80;100.00;102286.53;4887464;29;20044;-76
2022/11/30 06:36:44;;;;;;;90.13;14.27;;;;;;;1.80;100.00;102282.16;4888878;29;20032;-74
2022/11/30 06:39:11;;;;;;;140.20;14.93;;;;;;;1.74;100.00;102294.47;4883890;29;20456;-75
2022/11/30 06:41:36;;;;;;;130.68;13.80;;;;;;;1.55;100.00;102296.25;4884277;29;20124;-76
2022/11/30 06:44:06;;;;;;;141.65;17.15;;;;;;;1.63;100.00;102298.88;4891231;29;20813;-72
2022/11/30 06:46:32;;;;;;;135.93;16.90;;;;;;;1.64;100.00;102300.63;4888913;29;20191;-75
2022/11/30 06:48:57;;;;;;;99.47;13.68;;;;;;;1.80;100.00;102308.44;4887330;29;20077;-74
2022/11/30 06:51:23;;;;;;;54.63;11.73;;;;;;;1.75;100.00;102315.47;4889241;29;20044;-75
2022/11/30 06:53:48;;;;;;;36.60;11.93;;;;;;;1.97;100.00;102316.31;4889183;29;20044;-76
2022/11/30 06:56:14;;;;;;;45.13;13.48;;;;;;;2.10;100.00;102317.09;4889113;29;20119;-76
2022/11/30 06:58:40;;;;;;;66.10;15.68;;;;;;;2.19;100.00;102303.91;4886499;29;20047;-76
2022/11/30 07:01:08;;;;;;;78.15;17.70;;;;;;;2.08;100.00;102305.72;4888182;29;20040;-73
2022/11/30 07:03:34;;;;;;;47.72;12.68;;;;;;;2.12;100.00;102306.59;4878530;29;20068;-75
2022/11/30 07:06:02;;;;;;;127.18;23.05;;;;;;;2.16;100.00;102303.03;4879942;29;20089;-74
2022/11/30 07:08:28;;;;;;;92.95;18.42;;;;;;;2.27;100.00;102317.03;4884606;29;20040;-73
2022/11/30 07:10:53;;;;;;;110.25;17.75;;;;;;;2.06;100.00;102320.66;4884491;29;20053;-73
2022/11/30 07:13:19;;;;;;;36.65;14.98;;;;;;;2.14;100.00;102320.59;4878571;29;20044;-75
2022/11/30 07:15:45;;;;;;;53.08;15.05;;;;;;;2.21;100.00;102319.69;4880875;29;20040;-74
2022/11/30 07:18:11;;;;;;;37.45;13.82;;;;;;;2.33;100.00;102325.78;4884147;29;20124;-75
2022/11/30 07:20:37;;;;;;;30.75;14.15;;;;;;;2.44;100.00;102325.69;4901407;29;20705;-76
2022/11/30 07:26:08;;;;;;;42.35;18.33;;;;;;;2.87;100.00;102338.59;4881319;29;20049;-74
2022/11/30 07:28:44;;;;;;;32.80;14.32;;;;;;;2.92;100.00;102343.84;4883765;29;20083;-76
2022/11/30 07:31:24;;;;;;;31.05;13.32;;;;;;;2.99;100.00;102343.75;4886182;29;20051;-75
2022/11/30 07:33:50;;;;;;;34.50;13.82;;;;;;;2.95;100.00;102343.78;4874056;29;20728;-75
2022/11/30 07:36:18;;;;;;;36.53;14.18;;;;;;;3.03;100.00;102347.25;4891870;29;20044;-76
2022/11/30 07:38:44;;;;;;;32.35;13.05;;;;;;;3.10;100.00;102351.59;4896231;29;20047;-75
2022/11/30 07:41:10;;;;;;;114.90;26.42;;;;;;;3.46;100.00;102352.13;4891015;29;20036;-75
2022/11/30 07:43:35;;;;;;;35.83;14.00;;;;;;;3.29;100.00;102358.44;4886001;29;20423;-74
2022/11/30 07:46:01;;;;;;;65.95;19.70;;;;;;;3.32;100.00;102352.28;4887802;29;20503;-76
2022/11/30 07:48:27;;;;;;;35.47;14.68;;;;;;;3.39;100.00;102351.34;4872723;29;20049;-76
2022/11/30 07:50:53;;;;;;;46.92;16.98;;;;;;;3.59;100.00;102356.41;4886589;29;20040;-74
2022/11/30 07:53:18;;;;;;;91.03;24.23;;;;;;;3.60;100.00;102355.53;4887591;29;20044;-75
2022/11/30 07:55:44;;;;;;;63.75;22.80;;;;;;;3.71;100.00;102360.69;4885915;29;20052;-76
2022/11/30 07:58:10;;;;;;;60.92;23.73;;;;;;;3.85;100.00;102361.41;4885894;29;20060;-74
2022/11/30 08:00:38;;;;;;;59.97;23.05;;;;;;;3.88;100.00;102370.19;4887063;29;20047;-74
2022/11/30 08:03:04;;;;;;;57.13;21.33;;;;;;;4.04;100.00;102359.44;4887258;29;20688;-75
2022/11/30 08:05:30;;;;;;;71.22;26.50;;;;;;;4.07;100.00;102356.78;4887616;29;20040;-75
2022/11/30 08:07:55;;;;;;;72.57;24.38;;;;;;;4.24;100.00;102361.84;4888010;29;20172;-75
2022/11/30 08:10:21;;;;;;;69.00;24.13;;;;;;;4.35;100.00;102357.28;4886819;29;20061;-75
2022/11/30 08:12:47;;;;;;;61.63;23.33;;;;;;;4.29;100.00;102358.25;4885440;29;20036;-74
2022/11/30 08:15:13;;;;;;;56.95;23.25;;;;;;;4.38;100.00;102370.47;4886719;29;20098;-76
2022/11/30 08:17:39;;;;;;;62.55;23.83;;;;;;;4.36;100.00;102367.81;4887615;29;20053;-74
2022/11/30 08:20:06;;;;;;;56.50;23.10;;;;;;;4.37;100.00;102366.09;4887383;29;20048;-74
2022/11/30 08:22:32;;;;;;;56.42;24.00;;;;;;;4.47;100.00;102365.06;4886404;29;20072;-74
2022/11/30 08:24:58;;;;;;;65.70;26.08;;;;;;;4.62;100.00;102371.91;4883286;29;20124;-75
2022/11/30 08:27:23;;;;;;;68.18;25.40;;;;;;;4.55;100.00;102375.50;4887361;29;20040;-76
2022/11/30 08:29:49;;;;;;;60.95;23.10;;;;;;;4.62;100.00;102375.44;4879619;29;20041;-73
2022/11/30 08:32:14;;;;;;;62.58;25.85;;;;;;;4.77;100.00;102378.72;4879158;29;20036;-75
2022/11/30 08:34:40;;;;;;;62.65;25.85;;;;;;;4.70;100.00;102377.94;4885389;29;20049;-75
2022/11/30 08:37:05;;;;;;;67.00;28.60;;;;;;;4.83;100.00;102387.44;4879050;29;20052;-75
2022/11/30 08:39:33;;;;;;;74.53;27.77;;;;;;;4.87;100.00;102381.22;4885823;29;20051;-75
2022/11/30 08:41:59;;;;;;;64.00;28.10;;;;;;;4.96;100.00;102381.97;4885441;29;20047;-75
2022/11/30 08:44:24;;;;;;;74.13;26.88;;;;;;;5.01;100.00;102378.34;4884656;29;20047;-74
2022/11/30 08:46:50;;;;;;;72.43;29.67;;;;;;;4.99;100.00;102387.22;4892294;29;20512;-74
2022/11/30 08:49:15;;;;;;;72.70;28.85;;;;;;;5.11;100.00;102384.38;4885229;29;20040;-76
2022/11/30 08:51:40;;;;;;;74.88;29.10;;;;;;;5.13;100.00;102380.81;4886038;29;20044;-75
2022/11/30 08:54:06;;;;;;;69.40;28.85;;;;;;;5.07;100.00;102386.22;4885828;29;20052;-74
2022/11/30 08:56:31;;;;;;;72.32;27.75;;;;;;;5.01;100.00;102385.41;4871297;29;20048;-75
2022/11/30 08:58:57;;;;;;;80.88;30.55;;;;;;;5.06;100.00;102391.50;4885016;29;20509;-74
2022/11/30 09:01:25;;;;;;;72.07;26.98;;;;;;;5.07;100.00;102385.31;4885680;29;20044;-74
2022/11/30 09:03:53;;;;;;;85.30;30.08;;;;;;;5.18;100.00;102389.56;4886648;29;20045;-75
2022/11/30 09:06:21;;;;;;;69.82;29.48;;;;;;;5.32;100.00;102393.72;4886335;29;20036;-75
2022/11/30 09:08:48;;;;;;;68.55;28.77;;;;;;;5.39;100.00;102395.38;4886880;29;20040;-73
2022/11/30 09:11:35;;;;;;;82.53;30.55;;;;;;;5.40;100.00;102397.13;4876475;29;20040;-76
2022/11/30 09:14:05;;;;;;;72.40;28.88;;;;;;;5.55;100.00;102390.69;4874750;29;20612;-75
2022/11/30 09:16:31;;;;;;;78.45;30.58;;;;;;;5.64;100.00;102399.34;4884350;29;20107;-73
2022/11/30 09:18:56;;;;;;;67.82;26.90;;;;;;;5.66;100.00;102404.59;4884395;29;20053;-76
2022/11/30 09:21:23;;;;;;;75.13;28.50;;;;;;;5.58;100.00;102404.75;4886397;29;20044;-75
2022/11/30 09:23:50;;;;;;;77.32;32.38;;;;;;;5.65;100.00;102401.09;4906058;29;20084;-76
2022/11/30 09:26:18;;;;;;;73.82;28.70;;;;;;;5.54;100.00;102407.47;4879040;29;20520;-74
2022/11/30 09:28:45;;;;;;;67.68;27.45;;;;;;;5.66;100.00;102404.59;4887298;29;20040;-76
2022/11/30 09:31:11;;;;;;;81.95;30.20;;;;;;;5.70;100.00;102404.53;4888951;29;20060;-74
2022/11/30 09:33:37;;;;;;;73.93;30.95;;;;;;;5.81;100.00;102411.41;4882493;29;20152;-74
2022/11/30 09:36:05;;;;;;;70.35;28.23;;;;;;;5.51;100.00;102408.38;4897981;29;20049;-73
2022/11/30 09:38:31;;;;;;;79.20;29.83;;;;;;;5.55;100.00;102407.44;4889410;29;20095;-74
2022/11/30 09:40:59;;;;;;;74.72;28.67;;;;;;;5.77;100.00;102407.06;4889395;29;20041;-75
2022/11/30 09:43:43;;;;;;;72.75;30.75;;;;;;;5.61;100.00;102403.81;4889405;29;20545;-75
2022/11/30 09:46:08;;;;;;;74.75;28.23;;;;;;;5.70;100.00;102408.94;4884710;29;20052;-75
2022/11/30 09:48:40;;;;;;;77.82;30.42;;;;;;;5.71;100.00;102403.63;4899792;29;20048;-76
2022/11/30 09:51:13;;;;;;;76.80;28.50;;;;;;;5.72;100.00;102413.34;4888171;29;20565;-75
2022/11/30 09:53:42;;;;;;;65.53;27.65;;;;;;;5.64;100.00;102414.34;4888430;29;20120;-75
2022/11/30 09:56:23;;;;;;;77.97;31.70;;;;;;;5.75;100.00;102398.28;4887124;29;20033;-74
2022/11/30 09:59:01;;;;;;;83.53;32.13;;;;;;;5.82;100.00;102405.19;4885125;29;20048;-76
2022/11/30 10:01:26;;;;;;;73.53;29.02;;;;;;;5.82;100.00;102405.19;4886147;29;20051;-75
2022/11/30 10:03:52;;;;;;;69.35;27.17;;;;;;;5.81;100.00;102406.09;4879424;29;20052;-74
2022/11/30 10:06:22;;;;;;;70.22;26.30;;;;;;;5.80;100.00;102399.94;4888683;29;20050;-74
2022/11/30 10:09:06;;;;;;;67.18;26.90;;;;;;;5.84;100.00;102401.63;4881298;29;20047;-74
2022/11/30 10:11:40;;;;;;;68.28;27.27;;;;;;;5.79;100.00;102399.97;4885171;29;20044;-75
2022/11/30 10:14:26;;;;;;;68.05;26.92;;;;;;;5.76;100.00;102394.72;4886877;29;20040;-75
2022/11/30 10:17:10;;;;;;;67.78;27.90;;;;;;;5.74;100.00;102392.13;4881429;29;20147;-74
2022/11/30 10:20:00;;;;;;;71.75;28.77;;;;;;;5.79;100.00;102397.34;4892855;29;20414;-75
2022/11/30 10:22:41;;;;;;;70.53;26.40;;;;;;;5.63;100.00;102391.44;4890429;29;20052;-75
2022/11/30 10:25:13;;;;;;;60.70;25.02;;;;;;;5.70;100.00;102390.44;4888174;29;20056;-74
2022/11/30 10:27:38;;;;;;;68.03;24.67;;;;;;;5.75;100.00;102385.06;4888398;29;20037;-74
2022/11/30 10:30:35;;;;;;;68.22;27.48;;;;;;;5.77;100.00;102372.66;4887040;29;20405;-76
2022/11/30 10:33:13;;;;;;;65.03;26.85;;;;;;;5.77;100.00;102375.28;4874897;29;20060;-75
2022/11/30 10:35:55;;;;;;;64.82;26.33;;;;;;;5.74;100.00;102372.72;4885937;29;20028;-74
2022/11/30 10:38:26;;;;;;;79.30;27.58;;;;;;;5.80;100.00;102377.91;4885994;29;20051;-75
2022/11/30 10:40:57;;;;;;;70.47;26.40;;;;;;;5.80;100.00;102375.25;4884382;29;20045;-75
2022/11/30 10:43:37;;;;;;;61.03;25.02;;;;;;;5.81;100.00;102377.00;4887437;29;20573;-75
2022/11/30 10:46:04;;;;;;;65.97;27.33;;;;;;;5.98;100.00;102377.59;4883842;29;20052;-75
2022/11/30 10:48:38;;;;;;;64.50;26.92;;;;;;;5.96;100.00;102374.94;4886008;29;20060;-76
2022/11/30 10:51:04;;;;;;;61.58;25.98;;;;;;;5.91;100.00;102378.56;4886168;29;20043;-74
2022/11/30 10:53:31;;;;;;;62.30;25.65;;;;;;;6.12;100.00;102372.00;4878684;29;20076;-74
2022/11/30 10:56:01;;;;;;;54.85;23.40;;;;;;;6.02;100.00;102378.38;4887635;29;20107;-76
2022/11/30 10:58:31;;;;;;;48.05;21.75;;;;;;;6.14;100.00;102362.25;4887882;29;20060;-75
2022/11/30 11:01:04;;;;;;;63.33;24.50;;;;;;;6.05;100.00;102371.25;4895411;29;20040;-76
2022/11/30 11:03:30;;;;;;;60.03;25.20;;;;;;;6.29;100.00;102369.88;4882721;29;20047;-75
2022/11/30 11:06:06;;;;;;;53.42;23.25;;;;;;;6.31;100.00;102373.38;4887859;29;20174;-72
2022/11/30 11:08:31;;;;;;;59.95;25.08;;;;;;;6.37;100.00;102372.34;4884740;29;20120;-74
2022/11/30 11:10:57;;;;;;;56.13;22.17;;;;;;;6.41;100.00;102377.56;4886553;29;20049;-74
2022/11/30 11:13:42;;;;;;;53.03;22.25;;;;;;;6.35;100.00;102371.53;4886816;29;20826;-75
2022/11/30 11:16:10;;;;;;;51.78;21.00;;;;;;;6.43;100.00;102365.19;4885562;29;20045;-76